sensor_id;sensor_type;location;lat;lon;timestamp;P1;durP1;ratioP1;P2;durP2;ratioP2
33644;SDS011;19986;48.190;16.366;2023-12-28T00:01:32;58.25;;;54.35;;
33644;SDS011;19986;48.190;16.366;2023-12-28T00:03:58;58.15;;;54.35;;
33644;SDS011;19986;48.190;16.366;2023-12-28T00:06:24;61.88;;;57.67;;
33644;SDS011;19986;48.190;16.366;2023-12-28T00:08:51;60.67;;;56.33;;
33644;SDS011;19986;48.190;16.366;2023-12-28T00:11:17;60.10;;;56.08;;
33644;SDS011;19986;48.190;16.366;2023-12-28T00:13:43;59.35;;;55.33;;
33644;SDS011;19986;48.190;16.366;2023-12-28T00:16:09;58.30;;;54.15;;
33644;SDS011;19986;48.190;16.366;2023-12-28T00:18:35;58.83;;;54.63;;
33644;SDS011;19986;48.190;16.366;2023-12-28T00:21:01;61.15;;;57.00;;
33644;SDS011;19986;48.190;16.366;2023-12-28T00:23:26;58.03;;;54.00;;
33644;SDS011;19986;48.190;16.366;2023-12-28T00:25:52;58.17;;;54.08;;
33644;SDS011;19986;48.190;16.366;2023-12-28T00:28:18;59.25;;;54.95;;
33644;SDS011;19986;48.190;16.366;2023-12-28T00:30:44;59.33;;;55.22;;
33644;SDS011;19986;48.190;16.366;2023-12-28T00:33:10;57.80;;;53.90;;
33644;SDS011;19986;48.190;16.366;2023-12-28T00:35:36;59.60;;;55.50;;
33644;SDS011;19986;48.190;16.366;2023-12-28T00:38:01;61.03;;;56.78;;
33644;SDS011;19986;48.190;16.366;2023-12-28T00:40:27;62.08;;;57.55;;
33644;SDS011;19986;48.190;16.366;2023-12-28T00:42:54;63.15;;;58.70;;
33644;SDS011;19986;48.190;16.366;2023-12-28T00:45:20;59.20;;;55.08;;
33644;SDS011;19986;48.190;16.366;2023-12-28T00:47:46;60.38;;;56.17;;
33644;SDS011;19986;48.190;16.366;2023-12-28T00:50:12;60.90;;;56.75;;
33644;SDS011;19986;48.190;16.366;2023-12-28T00:52:40;61.25;;;57.10;;
33644;SDS011;19986;48.190;16.366;2023-12-28T00:55:07;61.95;;;57.35;;
33644;SDS011;19986;48.190;16.366;2023-12-28T00:57:33;62.60;;;57.97;;
33644;SDS011;19986;48.190;16.366;2023-12-28T00:59:59;60.72;;;56.20;;
33644;SDS011;19986;48.190;16.366;2023-12-28T01:02:25;64.28;;;59.88;;
33644;SDS011;19986;48.190;16.366;2023-12-28T01:04:52;62.65;;;58.05;;
33644;SDS011;19986;48.190;16.366;2023-12-28T01:07:18;60.65;;;56.42;;
33644;SDS011;19986;48.190;16.366;2023-12-28T01:09:44;60.85;;;56.40;;
33644;SDS011;19986;48.190;16.366;2023-12-28T01:12:10;61.13;;;56.40;;
33644;SDS011;19986;48.190;16.366;2023-12-28T01:14:36;63.70;;;58.65;;
33644;SDS011;19986;48.190;16.366;2023-12-28T01:17:02;63.47;;;58.72;;
33644;SDS011;19986;48.190;16.366;2023-12-28T01:19:28;62.00;;;57.70;;
33644;SDS011;19986;48.190;16.366;2023-12-28T01:21:54;61.55;;;56.95;;
33644;SDS011;19986;48.190;16.366;2023-12-28T01:24:20;63.72;;;59.15;;
33644;SDS011;19986;48.190;16.366;2023-12-28T01:26:46;63.60;;;59.05;;
33644;SDS011;19986;48.190;16.366;2023-12-28T01:29:12;65.85;;;61.00;;
33644;SDS011;19986;48.190;16.366;2023-12-28T01:31:37;62.70;;;58.05;;
33644;SDS011;19986;48.190;16.366;2023-12-28T01:34:04;65.95;;;60.97;;
33644;SDS011;19986;48.190;16.366;2023-12-28T01:36:31;64.68;;;60.08;;
33644;SDS011;19986;48.190;16.366;2023-12-28T01:38:57;66.50;;;61.05;;
33644;SDS011;19986;48.190;16.366;2023-12-28T01:41:23;61.83;;;57.10;;
33644;SDS011;19986;48.190;16.366;2023-12-28T01:43:50;67.15;;;62.15;;
33644;SDS011;19986;48.190;16.366;2023-12-28T01:46:17;67.60;;;62.28;;
33644;SDS011;19986;48.190;16.366;2023-12-28T01:48:44;68.53;;;63.30;;
33644;SDS011;19986;48.190;16.366;2023-12-28T01:51:13;69.35;;;63.65;;
33644;SDS011;19986;48.190;16.366;2023-12-28T01:53:41;67.53;;;62.25;;
33644;SDS011;19986;48.190;16.366;2023-12-28T01:56:08;69.78;;;64.10;;
33644;SDS011;19986;48.190;16.366;2023-12-28T01:58:35;66.82;;;61.60;;
33644;SDS011;19986;48.190;16.366;2023-12-28T02:01:06;69.32;;;64.00;;
33644;SDS011;19986;48.190;16.366;2023-12-28T02:03:32;70.88;;;65.25;;
33644;SDS011;19986;48.190;16.366;2023-12-28T02:05:59;67.43;;;62.28;;
33644;SDS011;19986;48.190;16.366;2023-12-28T02:08:26;70.40;;;64.80;;
33644;SDS011;19986;48.190;16.366;2023-12-28T02:10:52;72.50;;;66.50;;
33644;SDS011;19986;48.190;16.366;2023-12-28T02:13:21;73.05;;;67.15;;
33644;SDS011;19986;48.190;16.366;2023-12-28T02:15:48;69.82;;;64.20;;
33644;SDS011;19986;48.190;16.366;2023-12-28T02:18:36;70.05;;;64.43;;
33644;SDS011;19986;48.190;16.366;2023-12-28T02:21:07;73.32;;;67.32;;
33644;SDS011;19986;48.190;16.366;2023-12-28T02:23:34;70.15;;;64.47;;
33644;SDS011;19986;48.190;16.366;2023-12-28T02:26:00;73.53;;;67.47;;
33644;SDS011;19986;48.190;16.366;2023-12-28T02:28:27;75.32;;;69.70;;
33644;SDS011;19986;48.190;16.366;2023-12-28T02:30:53;69.60;;;64.03;;
33644;SDS011;19986;48.190;16.366;2023-12-28T02:36:12;69.85;;;64.47;;
33644;SDS011;19986;48.190;16.366;2023-12-28T02:38:39;73.50;;;67.32;;
33644;SDS011;19986;48.190;16.366;2023-12-28T02:41:08;70.88;;;65.18;;
33644;SDS011;19986;48.190;16.366;2023-12-28T02:43:35;70.20;;;64.50;;
33644;SDS011;19986;48.190;16.366;2023-12-28T02:46:01;74.78;;;68.55;;
33644;SDS011;19986;48.190;16.366;2023-12-28T02:48:27;74.45;;;68.43;;
33644;SDS011;19986;48.190;16.366;2023-12-28T02:50:53;73.68;;;67.57;;
33644;SDS011;19986;48.190;16.366;2023-12-28T02:53:19;75.18;;;69.10;;
33644;SDS011;19986;48.190;16.366;2023-12-28T02:55:44;71.53;;;64.85;;
33644;SDS011;19986;48.190;16.366;2023-12-28T02:58:10;76.38;;;69.95;;
33644;SDS011;19986;48.190;16.366;2023-12-28T03:00:36;76.85;;;70.05;;
33644;SDS011;19986;48.190;16.366;2023-12-28T03:03:02;76.30;;;69.78;;
33644;SDS011;19986;48.190;16.366;2023-12-28T03:05:28;86.68;;;69.43;;
33644;SDS011;19986;48.190;16.366;2023-12-28T03:07:54;73.35;;;66.68;;
33644;SDS011;19986;48.190;16.366;2023-12-28T03:10:21;76.15;;;69.68;;
33644;SDS011;19986;48.190;16.366;2023-12-28T03:12:47;75.63;;;68.70;;
33644;SDS011;19986;48.190;16.366;2023-12-28T03:15:13;77.13;;;70.30;;
33644;SDS011;19986;48.190;16.366;2023-12-28T03:17:39;77.38;;;70.20;;
33644;SDS011;19986;48.190;16.366;2023-12-28T03:20:05;75.18;;;68.57;;
33644;SDS011;19986;48.190;16.366;2023-12-28T03:22:31;78.55;;;71.85;;
33644;SDS011;19986;48.190;16.366;2023-12-28T03:24:57;79.65;;;72.35;;
33644;SDS011;19986;48.190;16.366;2023-12-28T03:27:24;77.05;;;70.53;;
33644;SDS011;19986;48.190;16.366;2023-12-28T03:29:50;76.90;;;70.20;;
33644;SDS011;19986;48.190;16.366;2023-12-28T03:32:16;74.60;;;68.28;;
33644;SDS011;19986;48.190;16.366;2023-12-28T03:34:41;74.93;;;68.22;;
33644;SDS011;19986;48.190;16.366;2023-12-28T03:37:07;76.70;;;69.72;;
33644;SDS011;19986;48.190;16.366;2023-12-28T03:39:34;78.13;;;70.90;;
33644;SDS011;19986;48.190;16.366;2023-12-28T03:42:00;75.72;;;69.30;;
33644;SDS011;19986;48.190;16.366;2023-12-28T03:44:26;80.57;;;72.72;;
33644;SDS011;19986;48.190;16.366;2023-12-28T03:46:52;74.65;;;67.50;;
33644;SDS011;19986;48.190;16.366;2023-12-28T03:49:18;77.45;;;69.47;;
33644;SDS011;19986;48.190;16.366;2023-12-28T03:51:45;73.35;;;67.07;;
33644;SDS011;19986;48.190;16.366;2023-12-28T03:54:17;75.72;;;69.30;;
33644;SDS011;19986;48.190;16.366;2023-12-28T03:56:44;75.03;;;68.57;;
33644;SDS011;19986;48.190;16.366;2023-12-28T03:59:11;75.50;;;69.28;;
33644;SDS011;19986;48.190;16.366;2023-12-28T04:01:37;75.53;;;69.03;;
33644;SDS011;19986;48.190;16.366;2023-12-28T04:04:02;77.47;;;69.63;;
33644;SDS011;19986;48.190;16.366;2023-12-28T04:06:28;79.35;;;71.82;;
33644;SDS011;19986;48.190;16.366;2023-12-28T04:08:54;72.63;;;66.53;;
33644;SDS011;19986;48.190;16.366;2023-12-28T04:11:21;75.93;;;69.53;;
33644;SDS011;19986;48.190;16.366;2023-12-28T04:13:47;80.32;;;73.28;;
33644;SDS011;19986;48.190;16.366;2023-12-28T04:16:13;76.93;;;69.82;;
33644;SDS011;19986;48.190;16.366;2023-12-28T04:18:42;76.72;;;70.07;;
33644;SDS011;19986;48.190;16.366;2023-12-28T04:21:09;74.93;;;68.63;;
33644;SDS011;19986;48.190;16.366;2023-12-28T04:23:36;80.72;;;73.32;;
33644;SDS011;19986;48.190;16.366;2023-12-28T04:26:02;78.45;;;71.32;;
33644;SDS011;19986;48.190;16.366;2023-12-28T04:28:28;74.38;;;67.93;;
33644;SDS011;19986;48.190;16.366;2023-12-28T04:30:55;78.88;;;72.07;;
33644;SDS011;19986;48.190;16.366;2023-12-28T04:33:21;74.80;;;68.65;;
33644;SDS011;19986;48.190;16.366;2023-12-28T04:35:47;73.47;;;67.05;;
33644;SDS011;19986;48.190;16.366;2023-12-28T04:38:12;73.75;;;67.35;;
33644;SDS011;19986;48.190;16.366;2023-12-28T04:40:38;76.15;;;69.65;;
33644;SDS011;19986;48.190;16.366;2023-12-28T04:43:04;73.45;;;66.82;;
33644;SDS011;19986;48.190;16.366;2023-12-28T04:45:30;75.07;;;68.50;;
33644;SDS011;19986;48.190;16.366;2023-12-28T04:47:57;70.68;;;64.63;;
33644;SDS011;19986;48.190;16.366;2023-12-28T04:50:22;76.38;;;69.57;;
33644;SDS011;19986;48.190;16.366;2023-12-28T04:52:48;74.25;;;68.03;;
33644;SDS011;19986;48.190;16.366;2023-12-28T04:55:14;77.55;;;70.95;;
33644;SDS011;19986;48.190;16.366;2023-12-28T04:57:41;75.20;;;68.55;;
33644;SDS011;19986;48.190;16.366;2023-12-28T05:00:07;74.88;;;68.55;;
33644;SDS011;19986;48.190;16.366;2023-12-28T05:02:34;79.22;;;72.22;;
33644;SDS011;19986;48.190;16.366;2023-12-28T05:05:00;74.78;;;68.15;;
33644;SDS011;19986;48.190;16.366;2023-12-28T05:07:26;75.75;;;69.10;;
33644;SDS011;19986;48.190;16.366;2023-12-28T05:09:52;78.05;;;71.18;;
33644;SDS011;19986;48.190;16.366;2023-12-28T05:12:17;79.03;;;72.45;;
33644;SDS011;19986;48.190;16.366;2023-12-28T05:14:43;80.90;;;74.25;;
33644;SDS011;19986;48.190;16.366;2023-12-28T05:17:09;80.55;;;73.43;;
33644;SDS011;19986;48.190;16.366;2023-12-28T05:19:35;78.88;;;71.68;;
33644;SDS011;19986;48.190;16.366;2023-12-28T05:22:01;78.82;;;71.80;;
33644;SDS011;19986;48.190;16.366;2023-12-28T05:24:32;81.45;;;74.15;;
33644;SDS011;19986;48.190;16.366;2023-12-28T05:26:58;78.13;;;71.53;;
33644;SDS011;19986;48.190;16.366;2023-12-28T05:29:24;79.50;;;72.68;;
33644;SDS011;19986;48.190;16.366;2023-12-28T05:31:50;79.45;;;72.63;;
33644;SDS011;19986;48.190;16.366;2023-12-28T05:34:15;80.75;;;73.65;;
33644;SDS011;19986;48.190;16.366;2023-12-28T05:36:41;86.55;;;78.05;;
33644;SDS011;19986;48.190;16.366;2023-12-28T05:39:10;83.13;;;75.60;;
33644;SDS011;19986;48.190;16.366;2023-12-28T05:41:39;83.13;;;75.18;;
33644;SDS011;19986;48.190;16.366;2023-12-28T05:44:05;90.30;;;81.60;;
33644;SDS011;19986;48.190;16.366;2023-12-28T05:46:31;84.20;;;75.95;;
33644;SDS011;19986;48.190;16.366;2023-12-28T05:48:57;90.32;;;81.63;;
33644;SDS011;19986;48.190;16.366;2023-12-28T05:51:23;87.63;;;78.95;;
33644;SDS011;19986;48.190;16.366;2023-12-28T05:53:49;89.85;;;80.78;;
33644;SDS011;19986;48.190;16.366;2023-12-28T05:56:16;89.95;;;80.57;;
33644;SDS011;19986;48.190;16.366;2023-12-28T05:58:42;86.13;;;77.32;;
33644;SDS011;19986;48.190;16.366;2023-12-28T06:01:08;91.63;;;82.35;;
33644;SDS011;19986;48.190;16.366;2023-12-28T06:03:34;90.85;;;81.38;;
33644;SDS011;19986;48.190;16.366;2023-12-28T06:05:59;92.05;;;82.57;;
33644;SDS011;19986;48.190;16.366;2023-12-28T06:08:25;88.85;;;79.60;;
33644;SDS011;19986;48.190;16.366;2023-12-28T06:10:51;87.97;;;78.90;;
33644;SDS011;19986;48.190;16.366;2023-12-28T06:13:17;88.88;;;80.15;;
33644;SDS011;19986;48.190;16.366;2023-12-28T06:15:43;85.82;;;77.00;;
33644;SDS011;19986;48.190;16.366;2023-12-28T06:18:09;88.60;;;80.10;;
33644;SDS011;19986;48.190;16.366;2023-12-28T06:20:34;88.90;;;80.50;;
33644;SDS011;19986;48.190;16.366;2023-12-28T06:23:01;86.93;;;78.50;;
33644;SDS011;19986;48.190;16.366;2023-12-28T06:25:27;85.00;;;76.55;;
33644;SDS011;19986;48.190;16.366;2023-12-28T06:27:53;86.35;;;77.63;;
33644;SDS011;19986;48.190;16.366;2023-12-28T06:30:19;86.20;;;77.93;;
33644;SDS011;19986;48.190;16.366;2023-12-28T06:32:45;84.78;;;76.90;;
33644;SDS011;19986;48.190;16.366;2023-12-28T06:35:11;83.55;;;75.30;;
33644;SDS011;19986;48.190;16.366;2023-12-28T06:37:36;84.78;;;77.13;;
33644;SDS011;19986;48.190;16.366;2023-12-28T06:40:02;83.20;;;74.72;;
33644;SDS011;19986;48.190;16.366;2023-12-28T06:42:29;85.00;;;76.78;;
33644;SDS011;19986;48.190;16.366;2023-12-28T06:44:54;81.93;;;74.25;;
33644;SDS011;19986;48.190;16.366;2023-12-28T06:47:20;80.32;;;72.47;;
33644;SDS011;19986;48.190;16.366;2023-12-28T06:49:47;80.32;;;72.95;;
33644;SDS011;19986;48.190;16.366;2023-12-28T06:52:12;82.72;;;74.50;;
33644;SDS011;19986;48.190;16.366;2023-12-28T06:54:39;82.38;;;74.30;;
33644;SDS011;19986;48.190;16.366;2023-12-28T06:57:05;85.38;;;77.35;;
33644;SDS011;19986;48.190;16.366;2023-12-28T06:59:31;81.18;;;73.60;;
33644;SDS011;19986;48.190;16.366;2023-12-28T07:01:57;80.05;;;72.43;;
33644;SDS011;19986;48.190;16.366;2023-12-28T07:04:23;81.38;;;73.80;;
33644;SDS011;19986;48.190;16.366;2023-12-28T07:06:51;82.85;;;75.25;;
33644;SDS011;19986;48.190;16.366;2023-12-28T07:09:16;82.35;;;74.80;;
33644;SDS011;19986;48.190;16.366;2023-12-28T07:11:43;84.22;;;76.38;;
33644;SDS011;19986;48.190;16.366;2023-12-28T07:14:09;79.75;;;72.72;;
33644;SDS011;19986;48.190;16.366;2023-12-28T07:16:34;79.00;;;71.80;;
33644;SDS011;19986;48.190;16.366;2023-12-28T07:19:00;79.68;;;72.45;;
33644;SDS011;19986;48.190;16.366;2023-12-28T07:21:26;79.55;;;71.90;;
33644;SDS011;19986;48.190;16.366;2023-12-28T07:23:52;81.55;;;74.13;;
33644;SDS011;19986;48.190;16.366;2023-12-28T07:26:18;79.82;;;72.57;;
33644;SDS011;19986;48.190;16.366;2023-12-28T07:28:44;81.45;;;74.25;;
33644;SDS011;19986;48.190;16.366;2023-12-28T07:31:21;81.55;;;73.93;;
33644;SDS011;19986;48.190;16.366;2023-12-28T07:33:50;81.32;;;74.13;;
33644;SDS011;19986;48.190;16.366;2023-12-28T07:36:16;78.70;;;71.72;;
33644;SDS011;19986;48.190;16.366;2023-12-28T07:38:42;79.53;;;72.22;;
33644;SDS011;19986;48.190;16.366;2023-12-28T07:41:09;77.85;;;70.90;;
33644;SDS011;19986;48.190;16.366;2023-12-28T07:43:35;78.28;;;70.93;;
33644;SDS011;19986;48.190;16.366;2023-12-28T07:46:03;81.63;;;73.75;;
33644;SDS011;19986;48.190;16.366;2023-12-28T07:48:30;80.22;;;72.22;;
33644;SDS011;19986;48.190;16.366;2023-12-28T07:50:56;83.97;;;75.65;;
33644;SDS011;19986;48.190;16.366;2023-12-28T07:53:22;81.78;;;74.13;;
33644;SDS011;19986;48.190;16.366;2023-12-28T07:55:49;82.78;;;74.28;;
33644;SDS011;19986;48.190;16.366;2023-12-28T07:58:15;81.22;;;73.63;;
33644;SDS011;19986;48.190;16.366;2023-12-28T08:00:42;81.25;;;73.55;;
33644;SDS011;19986;48.190;16.366;2023-12-28T08:03:08;82.55;;;74.75;;
33644;SDS011;19986;48.190;16.366;2023-12-28T08:05:33;79.78;;;71.88;;
33644;SDS011;19986;48.190;16.366;2023-12-28T08:07:59;78.88;;;70.90;;
33644;SDS011;19986;48.190;16.366;2023-12-28T08:10:25;80.75;;;72.57;;
33644;SDS011;19986;48.190;16.366;2023-12-28T08:12:51;81.07;;;72.75;;
33644;SDS011;19986;48.190;16.366;2023-12-28T08:15:17;77.80;;;70.15;;
33644;SDS011;19986;48.190;16.366;2023-12-28T08:17:43;78.13;;;70.28;;
33644;SDS011;19986;48.190;16.366;2023-12-28T08:20:09;80.65;;;73.05;;
33644;SDS011;19986;48.190;16.366;2023-12-28T08:22:35;75.18;;;67.78;;
33644;SDS011;19986;48.190;16.366;2023-12-28T08:25:01;77.35;;;69.80;;
33644;SDS011;19986;48.190;16.366;2023-12-28T08:27:26;76.45;;;69.28;;
33644;SDS011;19986;48.190;16.366;2023-12-28T08:29:52;76.45;;;69.18;;
33644;SDS011;19986;48.190;16.366;2023-12-28T08:32:18;76.45;;;69.03;;
33644;SDS011;19986;48.190;16.366;2023-12-28T08:34:44;74.63;;;67.13;;
33644;SDS011;19986;48.190;16.366;2023-12-28T08:37:11;74.47;;;67.57;;
33644;SDS011;19986;48.190;16.366;2023-12-28T08:39:37;75.70;;;68.57;;
33644;SDS011;19986;48.190;16.366;2023-12-28T08:42:04;72.97;;;66.03;;
33644;SDS011;19986;48.190;16.366;2023-12-28T08:44:30;72.40;;;65.65;;
33644;SDS011;19986;48.190;16.366;2023-12-28T08:46:56;71.03;;;64.60;;
33644;SDS011;19986;48.190;16.366;2023-12-28T08:49:24;70.80;;;64.38;;
33644;SDS011;19986;48.190;16.366;2023-12-28T08:51:51;72.40;;;65.80;;
33644;SDS011;19986;48.190;16.366;2023-12-28T08:54:17;68.80;;;62.40;;
33644;SDS011;19986;48.190;16.366;2023-12-28T08:56:44;74.40;;;67.38;;
33644;SDS011;19986;48.190;16.366;2023-12-28T08:59:10;72.60;;;66.20;;
33644;SDS011;19986;48.190;16.366;2023-12-28T09:01:37;73.93;;;67.10;;
33644;SDS011;19986;48.190;16.366;2023-12-28T09:04:03;73.25;;;66.57;;
33644;SDS011;19986;48.190;16.366;2023-12-28T09:06:29;74.15;;;67.13;;
33644;SDS011;19986;48.190;16.366;2023-12-28T09:08:54;74.07;;;67.43;;
33644;SDS011;19986;48.190;16.366;2023-12-28T09:11:21;71.88;;;64.97;;
33644;SDS011;19986;48.190;16.366;2023-12-28T09:13:47;71.97;;;65.38;;
33644;SDS011;19986;48.190;16.366;2023-12-28T09:16:13;67.95;;;61.55;;
33644;SDS011;19986;48.190;16.366;2023-12-28T09:18:40;70.03;;;63.70;;
33644;SDS011;19986;48.190;16.366;2023-12-28T09:21:07;73.20;;;66.43;;
33644;SDS011;19986;48.190;16.366;2023-12-28T09:23:33;73.07;;;65.88;;
33644;SDS011;19986;48.190;16.366;2023-12-28T09:26:00;77.30;;;70.28;;
33644;SDS011;19986;48.190;16.366;2023-12-28T09:28:31;75.07;;;68.28;;
33644;SDS011;19986;48.190;16.366;2023-12-28T09:30:59;71.57;;;65.00;;
33644;SDS011;19986;48.190;16.366;2023-12-28T09:33:41;74.93;;;68.13;;
33644;SDS011;19986;48.190;16.366;2023-12-28T09:36:06;73.75;;;66.03;;
33644;SDS011;19986;48.190;16.366;2023-12-28T09:38:34;70.63;;;64.05;;
33644;SDS011;19986;48.190;16.366;2023-12-28T09:41:04;71.65;;;65.35;;
33644;SDS011;19986;48.190;16.366;2023-12-28T09:43:44;69.10;;;62.97;;
33644;SDS011;19986;48.190;16.366;2023-12-28T09:46:14;71.15;;;64.85;;
33644;SDS011;19986;48.190;16.366;2023-12-28T09:48:40;68.90;;;62.90;;
33644;SDS011;19986;48.190;16.366;2023-12-28T09:51:06;71.22;;;65.15;;
33644;SDS011;19986;48.190;16.366;2023-12-28T09:53:35;72.40;;;66.00;;
33644;SDS011;19986;48.190;16.366;2023-12-28T09:56:01;72.80;;;66.60;;
33644;SDS011;19986;48.190;16.366;2023-12-28T09:58:30;70.60;;;64.35;;
33644;SDS011;19986;48.190;16.366;2023-12-28T10:01:01;69.15;;;63.20;;
33644;SDS011;19986;48.190;16.366;2023-12-28T10:03:29;68.47;;;62.92;;
33644;SDS011;19986;48.190;16.366;2023-12-28T10:05:55;68.72;;;63.08;;
33644;SDS011;19986;48.190;16.366;2023-12-28T10:08:22;72.00;;;66.10;;
33644;SDS011;19986;48.190;16.366;2023-12-28T10:10:49;71.60;;;65.65;;
33644;SDS011;19986;48.190;16.366;2023-12-28T10:13:19;69.95;;;63.95;;
33644;SDS011;19986;48.190;16.366;2023-12-28T10:15:49;68.80;;;63.15;;
33644;SDS011;19986;48.190;16.366;2023-12-28T10:18:16;71.00;;;65.20;;
33644;SDS011;19986;48.190;16.366;2023-12-28T10:20:47;71.78;;;65.68;;
33644;SDS011;19986;48.190;16.366;2023-12-28T10:23:20;69.47;;;63.67;;
33644;SDS011;19986;48.190;16.366;2023-12-28T10:25:46;68.28;;;62.28;;
33644;SDS011;19986;48.190;16.366;2023-12-28T10:28:13;70.35;;;64.40;;
33644;SDS011;19986;48.190;16.366;2023-12-28T10:30:44;71.80;;;65.80;;
33644;SDS011;19986;48.190;16.366;2023-12-28T10:33:10;72.10;;;65.57;;
33644;SDS011;19986;48.190;16.366;2023-12-28T10:35:35;72.00;;;65.80;;
33644;SDS011;19986;48.190;16.366;2023-12-28T10:38:02;69.90;;;64.10;;
33644;SDS011;19986;48.190;16.366;2023-12-28T10:40:29;71.93;;;65.75;;
33644;SDS011;19986;48.190;16.366;2023-12-28T10:43:06;71.70;;;65.57;;
33644;SDS011;19986;48.190;16.366;2023-12-28T10:45:34;70.65;;;64.55;;
33644;SDS011;19986;48.190;16.366;2023-12-28T10:48:06;70.13;;;63.33;;
33644;SDS011;19986;48.190;16.366;2023-12-28T10:50:37;70.43;;;64.20;;
33644;SDS011;19986;48.190;16.366;2023-12-28T10:55:53;72.18;;;66.03;;
33644;SDS011;19986;48.190;16.366;2023-12-28T10:58:30;71.25;;;65.13;;
33644;SDS011;19986;48.190;16.366;2023-12-28T11:01:21;72.95;;;66.63;;
33644;SDS011;19986;48.190;16.366;2023-12-28T11:03:55;71.38;;;64.78;;
33644;SDS011;19986;48.190;16.366;2023-12-28T11:06:32;72.40;;;66.10;;
33644;SDS011;19986;48.190;16.366;2023-12-28T11:08:58;71.45;;;65.15;;
33644;SDS011;19986;48.190;16.366;2023-12-28T11:11:26;68.68;;;62.88;;
33644;SDS011;19986;48.190;16.366;2023-12-28T11:13:52;69.38;;;63.58;;
33644;SDS011;19986;48.190;16.366;2023-12-28T11:16:21;68.00;;;62.33;;
33644;SDS011;19986;48.190;16.366;2023-12-28T11:18:48;73.75;;;67.60;;
33644;SDS011;19986;48.190;16.366;2023-12-28T11:21:15;69.30;;;63.60;;
33644;SDS011;19986;48.190;16.366;2023-12-28T11:23:43;70.93;;;64.57;;
33644;SDS011;19986;48.190;16.366;2023-12-28T11:26:16;71.85;;;65.85;;
33644;SDS011;19986;48.190;16.366;2023-12-28T11:28:43;70.22;;;64.32;;
33644;SDS011;19986;48.190;16.366;2023-12-28T11:31:09;69.38;;;63.45;;
33644;SDS011;19986;48.190;16.366;2023-12-28T11:33:48;73.20;;;66.90;;
33644;SDS011;19986;48.190;16.366;2023-12-28T11:39:04;71.35;;;65.28;;
33644;SDS011;19986;48.190;16.366;2023-12-28T11:41:35;70.00;;;64.22;;
33644;SDS011;19986;48.190;16.366;2023-12-28T11:44:02;70.22;;;64.22;;
33644;SDS011;19986;48.190;16.366;2023-12-28T11:46:30;68.53;;;63.03;;
33644;SDS011;19986;48.190;16.366;2023-12-28T11:49:07;66.55;;;60.95;;
33644;SDS011;19986;48.190;16.366;2023-12-28T11:51:37;66.30;;;60.80;;
33644;SDS011;19986;48.190;16.366;2023-12-28T11:54:04;69.25;;;63.60;;
33644;SDS011;19986;48.190;16.366;2023-12-28T11:56:31;71.57;;;65.70;;
33644;SDS011;19986;48.190;16.366;2023-12-28T11:58:58;68.97;;;63.15;;
33644;SDS011;19986;48.190;16.366;2023-12-28T12:01:24;70.90;;;65.30;;
33644;SDS011;19986;48.190;16.366;2023-12-28T12:03:50;73.28;;;67.28;;
33644;SDS011;19986;48.190;16.366;2023-12-28T12:06:16;69.53;;;63.85;;
33644;SDS011;19986;48.190;16.366;2023-12-28T12:08:45;70.32;;;64.63;;
33644;SDS011;19986;48.190;16.366;2023-12-28T12:11:12;69.25;;;63.60;;
33644;SDS011;19986;48.190;16.366;2023-12-28T12:13:38;68.85;;;63.22;;
33644;SDS011;19986;48.190;16.366;2023-12-28T12:16:04;65.47;;;60.47;;
33644;SDS011;19986;48.190;16.366;2023-12-28T12:18:34;64.07;;;59.20;;
33644;SDS011;19986;48.190;16.366;2023-12-28T12:21:01;62.28;;;56.80;;
33644;SDS011;19986;48.190;16.366;2023-12-28T12:23:28;63.17;;;58.20;;
33644;SDS011;19986;48.190;16.366;2023-12-28T12:25:54;67.97;;;62.78;;
33644;SDS011;19986;48.190;16.366;2023-12-28T12:28:20;64.53;;;59.15;;
33644;SDS011;19986;48.190;16.366;2023-12-28T12:30:53;67.68;;;62.10;;
33644;SDS011;19986;48.190;16.366;2023-12-28T12:33:23;60.88;;;56.38;;
33644;SDS011;19986;48.190;16.366;2023-12-28T12:35:51;66.05;;;60.75;;
33644;SDS011;19986;48.190;16.366;2023-12-28T12:38:17;68.05;;;62.40;;
33644;SDS011;19986;48.190;16.366;2023-12-28T12:40:43;65.57;;;60.45;;
33644;SDS011;19986;48.190;16.366;2023-12-28T12:43:09;66.10;;;60.75;;
33644;SDS011;19986;48.190;16.366;2023-12-28T12:45:36;64.15;;;59.25;;
33644;SDS011;19986;48.190;16.366;2023-12-28T12:48:05;65.35;;;60.55;;
33644;SDS011;19986;48.190;16.366;2023-12-28T12:50:31;62.92;;;58.05;;
33644;SDS011;19986;48.190;16.366;2023-12-28T12:53:01;63.05;;;58.25;;
33644;SDS011;19986;48.190;16.366;2023-12-28T12:55:27;62.13;;;57.33;;
33644;SDS011;19986;48.190;16.366;2023-12-28T12:57:53;61.45;;;57.10;;
33644;SDS011;19986;48.190;16.366;2023-12-28T13:00:24;63.67;;;58.95;;
33644;SDS011;19986;48.190;16.366;2023-12-28T13:02:50;65.55;;;60.63;;
33644;SDS011;19986;48.190;16.366;2023-12-28T13:05:19;65.75;;;60.75;;
33644;SDS011;19986;48.190;16.366;2023-12-28T13:07:45;63.55;;;58.88;;
33644;SDS011;19986;48.190;16.366;2023-12-28T13:10:10;64.18;;;59.40;;
33644;SDS011;19986;48.190;16.366;2023-12-28T13:12:36;65.47;;;60.40;;
33644;SDS011;19986;48.190;16.366;2023-12-28T13:15:03;65.30;;;60.30;;
33644;SDS011;19986;48.190;16.366;2023-12-28T13:17:32;64.80;;;59.97;;
33644;SDS011;19986;48.190;16.366;2023-12-28T13:19:57;67.45;;;62.15;;
33644;SDS011;19986;48.190;16.366;2023-12-28T13:22:26;66.47;;;61.50;;
33644;SDS011;19986;48.190;16.366;2023-12-28T13:24:52;62.40;;;57.50;;
33644;SDS011;19986;48.190;16.366;2023-12-28T13:27:18;67.13;;;61.58;;
33644;SDS011;19986;48.190;16.366;2023-12-28T13:29:44;63.60;;;58.83;;
33644;SDS011;19986;48.190;16.366;2023-12-28T13:32:10;61.83;;;57.13;;
33644;SDS011;19986;48.190;16.366;2023-12-28T13:34:36;64.43;;;59.08;;
33644;SDS011;19986;48.190;16.366;2023-12-28T13:37:01;62.45;;;58.13;;
33644;SDS011;19986;48.190;16.366;2023-12-28T13:39:28;63.00;;;58.53;;
33644;SDS011;19986;48.190;16.366;2023-12-28T13:41:54;61.63;;;56.90;;
33644;SDS011;19986;48.190;16.366;2023-12-28T13:44:20;63.25;;;58.58;;
33644;SDS011;19986;48.190;16.366;2023-12-28T13:46:46;66.63;;;61.65;;
33644;SDS011;19986;48.190;16.366;2023-12-28T13:49:12;63.50;;;58.63;;
33644;SDS011;19986;48.190;16.366;2023-12-28T13:51:38;64.15;;;59.42;;
33644;SDS011;19986;48.190;16.366;2023-12-28T13:54:04;63.22;;;58.47;;
33644;SDS011;19986;48.190;16.366;2023-12-28T13:56:30;63.38;;;58.58;;
33644;SDS011;19986;48.190;16.366;2023-12-28T13:58:56;65.25;;;60.35;;
33644;SDS011;19986;48.190;16.366;2023-12-28T14:01:22;63.33;;;58.63;;
33644;SDS011;19986;48.190;16.366;2023-12-28T14:03:48;64.93;;;60.05;;
33644;SDS011;19986;48.190;16.366;2023-12-28T14:06:17;65.30;;;60.40;;
33644;SDS011;19986;48.190;16.366;2023-12-28T14:08:43;64.38;;;59.58;;
33644;SDS011;19986;48.190;16.366;2023-12-28T14:11:09;67.35;;;62.20;;
33644;SDS011;19986;48.190;16.366;2023-12-28T14:13:35;65.85;;;60.55;;
33644;SDS011;19986;48.190;16.366;2023-12-28T14:16:02;68.72;;;62.50;;